Time;durP1;ratioP1;P1;durP2;ratioP2;P2;SDS_P1;SDS_P2;PMS_P1;PMS_P2;Temp;Humidity;BMP_temperature;BMP_pressure;BME280_temperature;BME280_humidity;BME280_pressure;Samples;Min_cycle;Max_cycle;Signal;HPM_P1;HPM_P2
2024/01/06 00:02:07;;;;;;;10.90;6.03;;;;;;;-16.06;100.00;98966.97;5100584;27;20043;-68
2024/01/06 00:04:49;;;;;;;8.60;5.00;;;;;;;-15.91;100.00;98968.53;5118160;27;20531;-67
2024/01/06 00:07:15;;;;;;;8.77;5.00;;;;;;;-16.02;100.00;98976.25;5082417;27;20138;-66
2024/01/06 00:09:40;;;;;;;11.80;5.30;;;;;;;-16.16;100.00;98976.34;5098540;27;20050;-67
2024/01/06 00:12:06;;;;;;;12.80;5.17;;;;;;;-16.27;100.00;98968.00;5114734;27;20078;-67
2024/01/06 00:14:34;;;;;;;14.30;5.95;;;;;;;-16.46;100.00;98953.75;5114787;27;20078;-67
2024/01/06 00:16:59;;;;;;;12.00;6.13;;;;;;;-16.55;100.00;98951.28;5097603;27;20334;-67
2024/01/06 00:19:25;;;;;;;19.20;6.40;;;;;;;-16.52;100.00;98960.56;5099787;27;20035;-67
2024/01/06 00:21:51;;;;;;;13.67;5.47;;;;;;;-16.49;100.00;98960.56;5114214;27;20082;-67
2024/01/06 00:24:17;;;;;;;18.63;5.93;;;;;;;-16.53;100.00;98956.38;5099686;27;20043;-67
2024/01/06 00:26:42;;;;;;;13.40;5.23;;;;;;;-16.62;100.00;98949.63;5121669;27;20091;-67
2024/01/06 00:29:08;;;;;;;12.20;6.07;;;;;;;-16.59;100.00;98958.94;5139673;27;20385;-67
2024/01/06 00:31:35;;;;;;;14.95;5.82;;;;;;;-16.52;100.00;98950.41;5103609;27;20462;-68
2024/01/06 00:34:01;;;;;;;11.70;6.47;;;;;;;-16.61;100.00;98958.09;5078424;28;20050;-69
2024/01/06 00:36:26;;;;;;;10.17;5.30;;;;;;;-16.56;100.00;98969.09;5078515;28;20167;-68
2024/01/06 00:38:52;;;;;;;13.03;4.67;;;;;;;-16.55;100.00;98963.13;5077799;28;20055;-67
2024/01/06 00:41:18;;;;;;;19.55;5.80;;;;;;;-16.51;100.00;98952.94;5077756;28;20344;-67
2024/01/06 00:43:44;;;;;;;11.90;5.57;;;;;;;-16.46;100.00;98950.38;5111593;28;20057;-67
2024/01/06 00:46:13;;;;;;;13.83;6.00;;;;;;;-16.38;100.00;98958.75;5061690;28;20522;-67
2024/01/06 00:48:39;;;;;;;9.88;5.30;;;;;;;-16.40;100.00;98963.00;5013066;28;20061;-67
2024/01/06 00:51:06;;;;;;;20.83;6.40;;;;;;;-16.35;100.00;98969.75;5078942;28;20040;-67
2024/01/06 00:53:31;;;;;;;13.15;5.72;;;;;;;-16.48;100.00;98958.00;5044084;28;20051;-67
2024/01/06 00:55:57;;;;;;;12.03;6.10;;;;;;;-16.40;100.00;98971.47;5044108;28;20105;-67
2024/01/06 00:58:23;;;;;;;9.80;5.13;;;;;;;-16.48;100.00;98967.34;5077415;28;20380;-67
2024/01/06 01:00:48;;;;;;;17.03;6.90;;;;;;;-16.42;100.00;98962.19;5044015;28;20047;-67
2024/01/06 01:03:14;;;;;;;12.20;5.50;;;;;;;-16.41;100.00;98954.53;5043713;28;20050;-67
2024/01/06 01:05:40;;;;;;;13.13;6.27;;;;;;;-16.29;100.00;98968.84;5107222;27;20507;-66
2024/01/06 01:08:06;;;;;;;12.67;5.57;;;;;;;-16.03;100.00;98977.09;5098691;27;20397;-67
2024/01/06 01:10:31;;;;;;;14.67;5.33;;;;;;;-16.08;100.00;98986.47;5115486;27;20138;-67
2024/01/06 01:12:57;;;;;;;9.70;5.57;;;;;;;-15.91;100.00;98971.06;5115396;27;20763;-67
2024/01/06 01:15:24;;;;;;;12.40;5.45;;;;;;;-15.72;100.00;98983.59;5098774;27;20051;-67
2024/01/06 01:17:50;;;;;;;7.77;4.90;;;;;;;-15.49;100.00;98981.66;5097978;27;20143;-67
2024/01/06 01:20:16;;;;;;;11.53;4.97;;;;;;;-15.40;100.00;98984.09;5115248;27;20039;-68
2024/01/06 01:22:42;;;;;;;10.93;6.07;;;;;;;-15.48;100.00;98975.69;5098186;27;20039;-68
2024/01/06 01:25:08;;;;;;;11.43;5.77;;;;;;;-15.43;100.00;98968.03;5098628;27;20047;-70
2024/01/06 01:27:34;;;;;;;14.80;5.37;;;;;;;-15.42;100.00;98983.28;5116147;27;20569;-68
2024/01/06 01:30:00;;;;;;;11.37;5.30;;;;;;;-15.53;100.00;98977.47;5065049;27;20284;-68
2024/01/06 01:32:25;;;;;;;16.00;6.20;;;;;;;-15.68;100.00;98985.25;5116746;27;20292;-67
2024/01/06 01:34:51;;;;;;;13.27;6.23;;;;;;;-15.67;100.00;98981.00;5098770;27;20043;-68
2024/01/06 01:37:17;;;;;;;13.00;5.93;;;;;;;-15.74;100.00;98984.47;5115723;27;20498;-67
2024/01/06 01:39:43;;;;;;;12.77;5.80;;;;;;;-15.68;100.00;98979.31;5133341;27;20039;-68
2024/01/06 01:42:09;;;;;;;12.77;5.87;;;;;;;-15.68;100.00;98979.31;5133127;27;20830;-67
2024/01/06 01:44:34;;;;;;;17.07;6.07;;;;;;;-15.57;100.00;98975.81;5093311;28;20047;-67
2024/01/06 01:47:00;;;;;;;8.53;5.47;;;;;;;-15.64;100.00;98964.03;5076932;28;20442;-67
2024/01/06 01:49:28;;;;;;;13.70;6.03;;;;;;;-15.58;100.00;98966.50;5077548;28;20127;-68
2024/01/06 01:51:54;;;;;;;11.90;5.50;;;;;;;-15.43;100.00;98970.56;5032765;28;20309;-67
2024/01/06 01:54:20;;;;;;;10.95;5.43;;;;;;;-15.54;100.00;98967.31;5000271;28;20284;-67
2024/01/06 01:56:45;;;;;;;13.57;5.70;;;;;;;-15.50;100.00;98966.41;5032963;28;20456;-67
2024/01/06 01:59:12;;;;;;;13.00;6.13;;;;;;;-15.57;100.00;98959.72;5033271;28;20582;-67
2024/01/06 02:01:40;;;;;;;14.00;5.97;;;;;;;-15.54;100.00;98954.59;5031994;28;20416;-67
2024/01/06 02:04:06;;;;;;;11.90;5.40;;;;;;;-15.55;100.00;98953.75;5014677;28;20891;-66
2024/01/06 02:06:31;;;;;;;18.13;6.33;;;;;;;-15.53;100.00;98958.81;5030255;28;20330;-67
2024/01/06 02:08:57;;;;;;;14.63;5.90;;;;;;;-15.42;100.00;98962.09;5013584;28;20389;-67
2024/01/06 02:11:23;;;;;;;12.00;5.40;;;;;;;-15.32;100.00;98954.28;5013459;28;20049;-67
2024/01/06 02:13:49;;;;;;;12.00;5.77;;;;;;;-15.21;100.00;98949.06;5030406;28;20451;-67
2024/01/06 02:16:15;;;;;;;11.90;5.23;;;;;;;-15.33;100.00;98944.97;5061915;28;20290;-67
2024/01/06 02:18:41;;;;;;;9.13;5.20;;;;;;;-15.35;100.00;98963.66;5054482;28;20138;-67
2024/01/06 02:21:07;;;;;;;11.17;5.57;;;;;;;-15.36;100.00;98947.56;5049275;28;20060;-67
2024/01/06 02:23:36;;;;;;;10.23;5.00;;;;;;;-15.30;100.00;98952.59;5064959;28;20151;-67
2024/01/06 02:26:02;;;;;;;12.60;5.22;;;;;;;-15.36;100.00;98962.00;5077472;28;20284;-67
2024/01/06 02:28:30;;;;;;;10.63;4.97;;;;;;;-15.36;100.00;98962.84;5076104;28;20082;-67
2024/01/06 02:30:56;;;;;;;12.60;5.90;;;;;;;-15.41;100.00;98962.06;5045313;28;20047;-67
2024/01/06 02:33:24;;;;;;;10.25;5.25;;;;;;;-15.41;100.00;98964.63;5097279;28;20286;-67
2024/01/06 02:35:50;;;;;;;11.57;5.20;;;;;;;-15.47;100.00;98984.19;5080168;28;20048;-67
2024/01/06 02:38:15;;;;;;;10.87;5.77;;;;;;;-15.54;100.00;98980.84;5063647;28;20048;-67
2024/01/06 02:40:42;;;;;;;14.53;6.27;;;;;;;-15.69;100.00;98991.19;5059536;28;20055;-67
2024/01/06 02:43:09;;;;;;;15.07;5.05;;;;;;;-15.74;100.00;98990.38;5076049;28;20147;-67
2024/01/06 02:45:35;;;;;;;9.85;4.68;;;;;;;-15.87;100.00;98976.13;5059742;28;20051;-67
2024/01/06 02:48:00;;;;;;;10.90;5.17;;;;;;;-15.93;100.00;98986.34;5059783;28;20048;-67
2024/01/06 02:50:26;;;;;;;12.63;6.13;;;;;;;-16.01;100.00;98993.19;5026659;28;20063;-67
2024/01/06 02:52:52;;;;;;;11.63;5.20;;;;;;;-16.07;100.00;98975.44;5043441;28;20198;-68
2024/01/06 02:55:18;;;;;;;10.10;5.40;;;;;;;-16.13;100.00;98975.50;5006904;28;20143;-67
2024/01/06 02:57:44;;;;;;;11.00;5.50;;;;;;;-16.17;100.00;98976.38;5040073;28;20048;-67
2024/01/06 03:00:10;;;;;;;9.23;4.90;;;;;;;-16.21;100.00;98967.94;5039527;28;20285;-67
2024/01/06 03:02:37;;;;;;;11.77;4.78;;;;;;;-16.19;100.00;98970.47;5022675;28;20044;-67
2024/01/06 03:05:03;;;;;;;10.27;5.17;;;;;;;-16.13;100.00;98967.88;5071870;28;20406;-69
2024/01/06 03:07:29;;;;;;;7.40;4.45;;;;;;;-16.02;100.00;98947.44;5026648;28;20372;-67
2024/01/06 03:09:55;;;;;;;10.57;4.65;;;;;;;-15.83;100.00;98954.06;5060015;28;20142;-68
2024/01/06 03:12:21;;;;;;;7.83;4.13;;;;;;;-15.76;100.00;98953.13;5123185;27;20229;-66
2024/01/06 03:14:47;;;;;;;7.07;4.77;;;;;;;-15.56;100.00;98946.97;5118002;27;20058;-66
2024/01/06 03:17:13;;;;;;;10.80;5.25;;;;;;;-15.59;100.00;98949.56;5117711;27;20133;-66
2024/01/06 03:19:39;;;;;;;13.73;4.32;;;;;;;-15.58;100.00;98960.56;5118026;27;20070;-66
2024/01/06 03:22:05;;;;;;;8.20;4.30;;;;;;;-15.58;100.00;98951.22;5100470;27;20478;-66
2024/01/06 03:24:32;;;;;;;9.23;4.77;;;;;;;-15.52;100.00;98968.97;5134491;27;20039;-66
2024/01/06 03:26:58;;;;;;;9.65;5.40;;;;;;;-15.68;100.00;98966.63;5117494;27;20046;-66
2024/01/06 03:29:23;;;;;;;10.67;5.10;;;;;;;-15.70;100.00;98953.91;5117185;27;20100;-66
2024/01/06 03:31:49;;;;;;;9.67;5.17;;;;;;;-15.66;100.00;98958.09;5117594;27;20035;-66
2024/01/06 03:34:15;;;;;;;14.47;5.93;;;;;;;-15.58;100.00;98958.88;5134836;27;20050;-66
2024/01/06 03:36:41;;;;;;;10.43;5.45;;;;;;;-15.61;100.00;98956.34;5135961;27;20043;-66
2024/01/06 03:39:07;;;;;;;12.13;6.07;;;;;;;-15.59;100.00;98974.16;5134322;27;20493;-67
2024/01/06 03:41:33;;;;;;;8.07;4.83;;;;;;;-15.64;100.00;98970.81;5135568;27;20046;-66
2024/01/06 03:43:59;;;;;;;9.57;5.00;;;;;;;-15.59;100.00;98963.97;5100251;27;20035;-67
2024/01/06 03:46:24;;;;;;;8.67;5.00;;;;;;;-15.54;100.00;98977.50;5133956;27;20127;-67
2024/01/06 03:48:50;;;;;;;8.40;4.53;;;;;;;-15.52;100.00;98968.97;5117344;27;20326;-67
2024/01/06 03:51:16;;;;;;;12.33;6.70;;;;;;;-15.48;100.00;98973.16;5117082;27;20855;-67
2024/01/06 03:53:42;;;;;;;8.75;4.25;;;;;;;-15.45;100.00;98972.31;5116741;27;20778;-66
2024/01/06 03:56:08;;;;;;;11.13;4.97;;;;;;;-15.45;100.00;98964.66;5116565;27;20087;-66
2024/01/06 03:58:34;;;;;;;16.80;5.77;;;;;;;-15.42;100.00;98968.00;5099792;27;20126;-66
2024/01/06 04:01:00;;;;;;;10.73;5.20;;;;;;;-15.45;100.00;98968.03;5133507;27;20041;-67
2024/01/06 04:03:26;;;;;;;14.63;5.33;;;;;;;-15.32;100.00;98958.53;5099636;27;20236;-66
2024/01/06 04:05:52;;;;;;;12.80;4.93;;;;;;;-15.30;100.00;98957.69;5116464;27;20434;-66
2024/01/06 04:08:18;;;;;;;9.13;4.30;;;;;;;-15.22;100.00;98958.41;5100300;27;20070;-67
2024/01/06 04:10:44;;;;;;;6.90;4.27;;;;;;;-15.16;100.00;98953.25;5082830;27;20363;-67
2024/01/06 04:13:14;;;;;;;9.30;4.60;;;;;;;-15.05;100.00;98969.22;5116594;27;20055;-67
2024/01/06 04:15:40;;;;;;;11.95;5.30;;;;;;;-15.20;100.00;98966.03;5116612;27;20043;-67
2024/01/06 04:18:06;;;;;;;9.20;5.13;;;;;;;-15.17;100.00;98973.63;5082287;27;20387;-67
2024/01/06 04:20:32;;;;;;;9.20;4.50;;;;;;;-15.11;100.00;98968.47;5133663;27;20043;-67
2024/01/06 04:22:58;;;;;;;8.17;4.50;;;;;;;-15.05;100.00;98974.31;5099128;27;20324;-66
2024/01/06 04:25:24;;;;;;;8.07;4.67;;;;;;;-15.09;100.00;98985.41;5133455;27;20858;-66
2024/01/06 04:27:50;;;;;;;9.70;5.23;;;;;;;-15.23;100.00;98972.00;5082293;27;20281;-66
2024/01/06 04:30:16;;;;;;;9.70;4.97;;;;;;;-15.21;100.00;98977.06;5115820;27;20307;-65
2024/01/06 04:32:44;;;;;;;6.87;4.63;;;;;;;-15.12;100.00;98972.72;5133300;27;20083;-67
2024/01/06 04:35:10;;;;;;;8.73;4.90;;;;;;;-15.02;100.00;98973.47;5116499;27;20281;-67
2024/01/06 04:37:37;;;;;;;10.97;4.90;;;;;;;-15.11;100.00;98968.47;5098931;27;20774;-68
2024/01/06 04:40:04;;;;;;;5.83;4.63;;;;;;;-15.06;100.00;98965.00;5099888;27;20284;-69
2024/01/06 04:42:30;;;;;;;9.17;4.90;;;;;;;-15.11;100.00;98978.66;5101175;27;20293;-68
2024/01/06 04:44:57;;;;;;;9.83;5.07;;;;;;;-15.15;100.00;98975.31;5118451;27;20281;-69
2024/01/06 04:47:23;;;;;;;12.20;5.90;;;;;;;-15.11;100.00;98984.56;5082473;28;20294;-67
2024/01/06 04:49:49;;;;;;;10.40;5.20;;;;;;;-15.18;100.00;98982.97;5078772;28;20311;-67
2024/01/06 04:52:15;;;;;;;11.63;5.67;;;;;;;-15.22;100.00;98990.69;5077958;28;20557;-67
2024/01/06 04:54:40;;;;;;;10.40;5.97;;;;;;;-15.37;100.00;98994.22;5095111;28;20039;-67
2024/01/06 04:57:06;;;;;;;10.80;5.30;;;;;;;-15.49;100.00;98991.84;5078230;28;20066;-67
2024/01/06 04:59:32;;;;;;;9.43;5.27;;;;;;;-15.55;100.00;98980.88;5112074;28;20039;-67
2024/01/06 05:01:58;;;;;;;11.17;6.00;;;;;;;-15.60;100.00;99001.28;5095157;28;20293;-68
2024/01/06 05:04:24;;;;;;;7.57;4.73;;;;;;;-15.60;100.00;98997.91;5095558;28;20044;-66
2024/01/06 05:06:54;;;;;;;17.55;7.80;;;;;;;-15.60;100.00;98988.56;5095139;28;20293;-66
2024/01/06 05:09:19;;;;;;;15.40;7.53;;;;;;;-15.75;100.00;98996.34;5111999;28;20345;-67
2024/01/06 05:11:45;;;;;;;15.43;7.37;;;;;;;-15.78;100.00;98993.84;5094758;28;20059;-67
2024/01/06 05:14:11;;;;;;;14.33;6.50;;;;;;;-15.74;100.00;99012.47;5077705;28;20044;-67
2024/01/06 05:16:37;;;;;;;9.68;5.93;;;;;;;-15.75;100.00;98998.03;5061192;28;20467;-67
2024/01/06 05:19:03;;;;;;;9.17;5.23;;;;;;;-15.77;100.00;98994.69;5078026;28;20188;-67
2024/01/06 05:21:29;;;;;;;10.63;5.43;;;;;;;-15.79;100.00;98997.25;5095102;28;20047;-68
2024/01/06 05:23:55;;;;;;;10.65;5.07;;;;;;;-15.89;100.00;98989.69;5112010;28;20043;-67
2024/01/06 05:26:21;;;;;;;14.33;5.90;;;;;;;-15.81;100.00;99005.72;5076996;28;20227;-67
2024/01/06 05:28:47;;;;;;;7.77;4.83;;;;;;;-15.69;100.00;98998.81;5094097;28;20668;-68
2024/01/06 05:31:14;;;;;;;12.45;5.35;;;;;;;-15.70;100.00;99001.38;5043958;28;20040;-69
2024/01/06 05:33:39;;;;;;;11.27;5.18;;;;;;;-15.65;100.00;98989.47;5093717;28;20150;-70
2024/01/06 05:36:05;;;;;;;10.57;4.60;;;;;;;-15.58;100.00;98991.94;5043982;28;20059;-69
2024/01/06 05:38:31;;;;;;;8.57;4.50;;;;;;;-15.49;100.00;98991.00;5114389;28;20102;-69
2024/01/06 05:41:02;;;;;;;8.45;5.03;;;;;;;-15.34;100.00;98991.63;5064281;28;20104;-69
2024/01/06 05:43:31;;;;;;;9.45;4.97;;;;;;;-15.30;100.00;98990.75;5043971;28;20051;-68
2024/01/06 05:45:56;;;;;;;8.10;5.17;;;;;;;-15.36;100.00;99002.72;5041133;28;20080;-68
2024/01/06 05:48:22;;;;;;;14.40;5.53;;;;;;;-15.36;100.00;99008.66;5039785;28;20055;-67
2024/01/06 05:50:48;;;;;;;14.40;5.80;;;;;;;-15.42;100.00;99003.63;5040288;28;20055;-70
2024/01/06 05:53:15;;;;;;;10.90;5.70;;;;;;;-15.42;100.00;98997.72;5059088;28;20541;-67
2024/01/06 05:55:40;;;;;;;9.23;5.10;;;;;;;-15.42;100.00;98993.44;5056118;28;20044;-67
2024/01/06 05:58:06;;;;;;;11.07;5.50;;;;;;;-15.27;100.00;98998.38;5026315;28;20136;-68
2024/01/06 06:00:32;;;;;;;7.17;4.60;;;;;;;-15.15;100.00;99005.84;5073290;28;20052;-67
2024/01/06 06:02:58;;;;;;;9.80;4.80;;;;;;;-15.15;100.00;98999.91;5072741;28;20436;-67
2024/01/06 06:05:24;;;;;;;10.43;5.30;;;;;;;-15.19;100.00;99019.47;5045248;28;20052;-67
2024/01/06 06:07:50;;;;;;;11.63;5.70;;;;;;;-15.29;100.00;99024.69;5062889;28;20381;-67
2024/01/06 06:10:18;;;;;;;11.65;5.50;;;;;;;-15.41;100.00;99032.47;5062503;28;20143;-67
2024/01/06 06:12:44;;;;;;;11.27;6.15;;;;;;;-15.51;100.00;99036.81;5079229;28;20671;-67
2024/01/06 06:15:10;;;;;;;12.97;5.63;;;;;;;-15.59;100.00;99036.06;5062663;28;20084;-68
2024/01/06 06:17:36;;;;;;;13.83;6.87;;;;;;;-15.59;100.00;99035.22;5062318;28;20060;-66
2024/01/06 06:20:03;;;;;;;12.52;5.28;;;;;;;-15.58;100.00;99037.72;5045832;28;20383;-68
2024/01/06 06:22:30;;;;;;;14.82;6.53;;;;;;;-15.58;100.00;99036.88;5046059;28;20052;-68
2024/01/06 06:25:02;;;;;;;14.23;6.17;;;;;;;-15.48;100.00;99041.03;5045927;28;20056;-67
2024/01/06 06:27:29;;;;;;;12.23;5.40;;;;;;;-15.62;100.00;99041.19;5047010;28;20138;-66
2024/01/06 06:29:58;;;;;;;10.57;5.63;;;;;;;-15.58;100.00;99052.16;5062808;28;20451;-67
2024/01/06 06:32:25;;;;;;;12.85;6.43;;;;;;;-15.73;100.00;99052.28;5096055;28;20056;-67
2024/01/06 06:34:51;;;;;;;13.15;5.57;;;;;;;-15.75;100.00;99059.06;5082102;28;20580;-66
2024/01/06 06:37:16;;;;;;;15.63;6.45;;;;;;;-15.78;100.00;99052.31;5100530;28;20039;-66
2024/01/06 06:39:44;;;;;;;13.63;6.10;;;;;;;-15.76;100.00;99057.41;5100288;28;20039;-67
2024/01/06 06:42:10;;;;;;;14.13;7.03;;;;;;;-15.72;100.00;99051.41;5067491;28;20541;-72
2024/01/06 06:44:37;;;;;;;13.43;6.00;;;;;;;-15.71;100.00;99046.31;5084772;28;20051;-75
2024/01/06 06:47:03;;;;;;;9.88;5.80;;;;;;;-15.77;100.00;99054.00;5101985;28;20601;-76
2024/01/06 06:49:29;;;;;;;7.83;5.30;;;;;;;-15.74;100.00;99051.44;5084804;28;20242;-75
2024/01/06 06:51:55;;;;;;;11.27;6.40;;;;;;;-15.76;100.00;99057.41;5084308;28;20313;-75
2024/01/06 06:54:21;;;;;;;8.48;4.78;;;;;;;-15.78;100.00;99044.69;5101837;28;20102;-74
2024/01/06 06:56:49;;;;;;;9.38;5.57;;;;;;;-15.74;100.00;99043.81;5085119;28;20072;-73
2024/01/06 06:59:15;;;;;;;10.77;5.77;;;;;;;-15.71;100.00;99040.41;5070080;28;20047;-74
2024/01/06 07:01:40;;;;;;;11.70;6.13;;;;;;;-15.70;100.00;99048.03;5071099;28;20092;-74
2024/01/06 07:04:06;;;;;;;9.07;5.17;;;;;;;-15.61;100.00;99053.03;5106787;28;20100;-74
2024/01/06 07:06:32;;;;;;;15.90;5.87;;;;;;;-15.51;100.00;99052.06;5072532;28;20464;-75
2024/01/06 07:08:58;;;;;;;15.48;6.22;;;;;;;-15.38;100.00;99062.97;5122521;28;20031;-74
2024/01/06 07:11:24;;;;;;;10.37;5.70;;;;;;;-14.93;100.00;99050.59;5064406;28;20067;-71
2024/01/06 07:13:50;;;;;;;10.87;5.97;;;;;;;-14.05;100.00;99045.09;5063228;28;20052;-71
2024/01/06 07:16:16;;;;;;;11.63;5.70;;;;;;;-13.79;100.00;99062.59;5077291;28;20292;-72
2024/01/06 07:18:42;;;;;;;13.93;5.80;;;;;;;-13.84;100.00;99054.16;5059322;28;20064;-72
2024/01/06 07:21:08;;;;;;;11.63;5.97;;;;;;;-14.28;100.00;99047.19;5059007;28;20048;-71
2024/01/06 07:23:34;;;;;;;14.87;6.73;;;;;;;-14.54;100.00;99056.88;5043069;28;20040;-75
2024/01/06 07:25:59;;;;;;;13.77;5.03;;;;;;;-14.63;100.00;99050.22;5043680;28;20563;-71
2024/01/06 07:28:26;;;;;;;14.03;5.63;;;;;;;-14.60;100.00;99052.72;5043279;28;20419;-70
2024/01/06 07:30:52;;;;;;;12.17;5.00;;;;;;;-14.59;100.00;99053.56;5075864;28;20058;-69
2024/01/06 07:33:17;;;;;;;10.47;5.40;;;;;;;-14.56;100.00;99056.09;5042168;28;20278;-70
2024/01/06 07:35:45;;;;;;;12.87;6.07;;;;;;;-14.59;100.00;99064.59;5042609;28;20483;-71
2024/01/06 07:38:14;;;;;;;11.73;6.23;;;;;;;-14.59;100.00;99068.88;5075608;28;20282;-69
2024/01/06 07:40:40;;;;;;;11.73;6.13;;;;;;;-14.61;100.00;99066.34;5055078;28;20298;-67
2024/01/06 07:43:06;;;;;;;13.50;6.30;;;;;;;-14.57;100.00;99065.41;5071554;28;20494;-66
2024/01/06 07:45:32;;;;;;;12.50;6.80;;;;;;;-14.59;100.00;99084.97;5026395;28;20308;-69
2024/01/06 07:48:01;;;;;;;14.43;5.83;;;;;;;-14.61;100.00;99066.34;5043023;28;20039;-68
2024/01/06 07:50:30;;;;;;;11.40;6.10;;;;;;;-14.74;100.00;99077.53;5042329;28;20309;-71
2024/01/06 07:52:57;;;;;;;15.80;7.33;;;;;;;-14.83;100.00;99054.72;5028018;28;20290;-72
2024/01/06 07:55:23;;;;;;;9.93;5.33;;;;;;;-14.70;100.00;99048.63;5025663;28;20641;-67
2024/01/06 07:57:49;;;;;;;13.43;6.63;;;;;;;-14.51;100.00;99056.84;5025868;28;20278;-69
2024/01/06 08:00:17;;;;;;;13.47;5.83;;;;;;;-14.40;100.00;99060.94;5040449;28;20090;-68
2024/01/06 08:02:44;;;;;;;14.50;7.07;;;;;;;-14.30;100.00;99059.94;5040982;28;20435;-70
2024/01/06 08:05:12;;;;;;;13.80;6.03;;;;;;;-14.16;100.00;99043.59;5074382;28;20795;-69
2024/01/06 08:07:39;;;;;;;12.37;5.30;;;;;;;-13.81;100.00;99038.78;5024754;28;20361;-70
2024/01/06 08:10:05;;;;;;;16.50;6.00;;;;;;;-13.58;100.00;99041.81;5057806;28;20320;-68
2024/01/06 08:12:32;;;;;;;10.13;6.17;;;;;;;-13.37;100.00;99042.28;5088559;27;20289;-68
2024/01/06 08:15:03;;;;;;;9.60;5.65;;;;;;;-13.21;100.00;99030.94;5116888;27;20297;-70
2024/01/06 08:17:34;;;;;;;13.43;6.10;;;;;;;-12.94;100.00;99024.41;5100306;27;20068;-69
2024/01/06 08:19:59;;;;;;;13.23;5.10;;;;;;;-12.63;100.00;99030.59;5098849;27;20284;-70
2024/01/06 08:22:26;;;;;;;8.77;4.70;;;;;;;-12.38;100.00;99034.31;5056786;28;20056;-72
2024/01/06 08:24:53;;;;;;;10.93;5.67;;;;;;;-12.21;100.00;99029.69;5050093;28;20409;-70
2024/01/06 08:27:19;;;;;;;10.73;5.23;;;;;;;-12.06;100.00;99031.88;5039405;28;20283;-66
2024/01/06 08:29:53;;;;;;;18.23;7.00;;;;;;;-11.89;100.00;99044.28;5021405;28;20310;-67
2024/01/06 08:32:19;;;;;;;17.97;7.53;;;;;;;-12.03;100.00;99043.75;5056499;28;20066;-68
2024/01/06 08:34:44;;;;;;;18.60;7.50;;;;;;;-12.22;100.00;99039.97;5040512;28;20306;-66
2024/01/06 08:37:10;;;;;;;17.47;7.67;;;;;;;-12.53;100.00;99044.88;5021145;28;20082;-66
2024/01/06 08:39:36;;;;;;;15.30;8.03;;;;;;;-12.63;100.00;99033.16;5040550;28;20059;-67
2024/01/06 08:42:02;;;;;;;15.77;7.43;;;;;;;-12.63;100.00;99038.25;5017053;28;20049;-69
2024/01/06 08:44:28;;;;;;;20.57;8.83;;;;;;;-12.64;100.00;99044.25;5033019;28;20098;-67
2024/01/06 08:46:55;;;;;;;15.97;7.53;;;;;;;-12.61;100.00;99041.63;5016711;28;20288;-66
2024/01/06 08:49:20;;;;;;;19.13;7.90;;;;;;;-12.67;100.00;99044.31;5033641;28;20063;-66
2024/01/06 08:51:46;;;;;;;19.27;9.00;;;;;;;-12.69;100.00;99046.06;5001051;28;20283;-68
2024/01/06 08:54:15;;;;;;;22.20;8.37;;;;;;;-12.48;100.00;99038.78;4992454;28;20057;-70
2024/01/06 08:56:41;;;;;;;22.20;8.77;;;;;;;-12.47;100.00;99044.75;5028020;28;20054;-67
2024/01/06 08:59:07;;;;;;;17.37;7.90;;;;;;;-12.42;100.00;99042.91;4998020;28;20305;-75
2024/01/06 09:01:35;;;;;;;18.60;8.33;;;;;;;-12.29;100.00;99030.72;5031473;28;20054;-70
2024/01/06 09:04:03;;;;;;;15.90;7.57;;;;;;;-12.03;100.00;99030.97;4997731;28;20304;-71
2024/01/06 09:06:55;;;;;;;16.33;7.47;;;;;;;-11.86;100.00;99016.06;5014835;28;20303;-70
2024/01/06 09:09:23;;;;;;;14.53;6.57;;;;;;;-11.86;100.00;99019.47;5012405;28;20370;-70
2024/01/06 09:11:49;;;;;;;16.00;7.10;;;;;;;-11.86;100.00;99023.75;4978220;28;20308;-70
2024/01/06 09:14:21;;;;;;;14.27;7.23;;;;;;;-11.79;100.00;99013.31;5011132;28;20284;-70
2024/01/06 09:16:47;;;;;;;21.25;8.13;;;;;;;-11.91;100.00;99026.41;5013212;28;20303;-69
2024/01/06 09:19:12;;;;;;;13.43;7.53;;;;;;;-11.91;100.00;99028.97;5012546;28;20514;-69
2024/01/06 09:21:38;;;;;;;18.77;9.00;;;;;;;-11.79;100.00;99025.28;5017417;28;20052;-69
2024/01/06 09:24:07;;;;;;;22.77;9.00;;;;;;;-11.70;100.00;99025.06;5001134;28;20049;-68
2024/01/06 09:26:40;;;;;;;19.23;8.53;;;;;;;-11.80;100.00;99019.31;5001529;28;20395;-69
2024/01/06 09:29:08;;;;;;;15.43;8.33;;;;;;;-11.82;100.00;99008.28;5000956;28;20385;-70
2024/01/06 09:31:34;;;;;;;18.03;8.53;;;;;;;-11.88;100.00;99016.09;5069648;28;20290;-74
2024/01/06 09:34:03;;;;;;;18.63;8.33;;;;;;;-11.78;100.00;99001.38;5040121;28;20290;-70
2024/01/06 09:36:31;;;;;;;17.90;7.97;;;;;;;-11.68;100.00;98998.53;5013005;28;20045;-71
2024/01/06 09:39:00;;;;;;;20.85;7.45;;;;;;;-11.57;100.00;99001.66;4990149;28;20290;-72
2024/01/06 09:41:28;;;;;;;15.37;7.20;;;;;;;-11.32;100.00;99007.84;4939598;28;20050;-72
2024/01/06 09:44:01;;;;;;;17.00;6.70;;;;;;;-11.00;100.00;99010.38;4968525;28;20408;-74
2024/01/06 09:46:41;;;;;;;13.67;6.90;;;;;;;-10.82;100.00;99002.16;4964513;28;20298;-74
2024/01/06 09:49:24;;;;;;;16.27;6.90;;;;;;;-10.60;100.00;99002.41;4948883;28;20301;-75
2024/01/06 09:51:58;;;;;;;14.27;6.87;;;;;;;-10.57;100.00;98997.19;4936336;28;20828;-76
2024/01/06 09:54:33;;;;;;;15.77;7.07;;;;;;;-10.36;100.00;98998.28;4953916;28;20300;-75
2024/01/06 09:57:01;;;;;;;19.90;8.67;;;;;;;-10.56;99.53;98998.03;4974303;28;20297;-73
2024/01/06 09:59:30;;;;;;;15.20;7.60;;;;;;;-10.50;100.00;99001.25;4943268;28;20308;-73
2024/01/06 10:01:57;;;;;;;15.77;7.90;;;;;;;-10.42;100.00;98995.91;4943764;28;20432;-73
2024/01/06 10:04:27;;;;;;;17.97;9.00;;;;;;;-10.75;97.59;99005.41;4943095;28;20293;-73
2024/01/06 10:06:55;;;;;;;27.70;9.43;;;;;;;-11.03;95.85;98994.22;4943769;28;20760;-73
2024/01/06 10:09:36;;;;;;;22.37;9.27;;;;;;;-11.14;99.38;98993.69;4942778;28;20150;-73
2024/01/06 10:12:07;;;;;;;15.30;7.93;;;;;;;-11.12;100.00;98990.22;4968624;28;20315;-73
2024/01/06 10:14:47;;;;;;;20.37;9.30;;;;;;;-11.01;100.00;98988.16;4998166;28;20370;-73
2024/01/06 10:17:30;;;;;;;18.67;8.60;;;;;;;-11.04;100.00;98979.75;5029679;28;20299;-73
2024/01/06 10:19:56;;;;;;;21.17;8.93;;;;;;;-11.08;100.00;98973.84;5001627;28;20040;-73
2024/01/06 10:22:22;;;;;;;23.47;9.63;;;;;;;-10.94;100.00;98973.47;5013495;28;20329;-73
2024/01/06 10:24:48;;;;;;;17.73;7.80;;;;;;;-10.77;100.00;98966.97;5056809;28;20313;-73
2024/01/06 10:27:16;;;;;;;18.13;8.30;;;;;;;-10.49;100.00;98974.72;5061876;27;20471;-73
2024/01/06 10:29:42;;;;;;;18.43;8.37;;;;;;;-10.49;100.00;98963.59;5082004;28;20047;-73
2024/01/06 10:32:09;;;;;;;19.07;8.37;;;;;;;-10.41;100.00;98970.19;5115396;28;20284;-73
2024/01/06 10:34:36;;;;;;;15.67;8.37;;;;;;;-10.24;100.00;98974.81;5081555;28;20312;-73
2024/01/06 10:37:07;;;;;;;17.47;8.20;;;;;;;-10.11;100.00;98965.81;5081115;28;20736;-73
2024/01/06 10:39:36;;;;;;;15.37;7.63;;;;;;;-10.08;100.00;98953.75;5098471;28;20296;-72
2024/01/06 10:44:57;;;;;;;16.37;7.77;;;;;;;-10.03;99.94;98951.00;5101286;28;20805;-73
2024/01/06 10:47:31;;;;;;;19.27;7.60;;;;;;;-9.99;98.09;98952.59;5049659;27;20686;-73
2024/01/06 10:50:00;;;;;;;13.32;7.25;;;;;;;-10.04;97.54;98952.72;5040051;28;20351;-73
2024/01/06 10:52:29;;;;;;;12.53;7.33;;;;;;;-10.00;97.19;98944.03;5042642;28;20051;-73
2024/01/06 10:54:59;;;;;;;15.17;8.23;;;;;;;-9.98;97.03;98939.72;5043439;28;20283;-74
2024/01/06 10:57:27;;;;;;;13.47;7.27;;;;;;;-9.93;96.41;98940.38;5044261;28;20369;-73
2024/01/06 10:59:56;;;;;;;20.43;7.93;;;;;;;-10.04;95.55;98952.72;5060521;28;20327;-73
2024/01/06 11:02:27;;;;;;;16.50;8.37;;;;;;;-10.19;95.96;98944.72;5043322;28;20611;-73
2024/01/06 11:04:54;;;;;;;18.90;8.03;;;;;;;-10.31;96.04;98942.50;5043325;28;20292;-74
2024/01/06 11:07:22;;;;;;;18.40;7.30;;;;;;;-10.21;97.79;98941.34;5000386;28;20390;-73
2024/01/06 11:09:54;;;;;;;16.80;7.47;;;;;;;-10.14;99.31;98940.25;4985033;28;20292;-73
2024/01/06 11:12:20;;;;;;;22.30;7.40;;;;;;;-10.17;99.33;98945.47;5000432;28;20284;-73
2024/01/06 11:14:47;;;;;;;15.87;6.77;;;;;;;-10.20;99.52;98943.88;5000743;28;20382;-73